Nearby METAR Reports

 

KRDU - Raleigh/Durham, North Carolina, USA
Distance from station: NNW 20mi, 33km
Updated: Tue, 03-Aug-2021 8:51am EDT
Overcast
Overcast
 Wind from ENE
Wind: ENE 7 mph , 11 km/h
Temperature: 72°F , 22°C
Dew Point: 64°F , 18°C
Humidity: 78%
Barometer: 30.08 inHg , 1018.6 hPa
Clouds: Overcast
Visibility: 10 miles , 16 km
Cloud details: Few Clouds 4500 ft
Few Clouds 12000 ft
Overcast 14000 ft
2021/08/03 12:51 KRDU 031251Z 06006KT 10SM FEW045 FEW120 OVC140 22/18 A3008 RMK AO2 SLP181 T02170183
KJNX - Smithfield Johns, North Carolina, USA
Distance from station: ESE 17mi, 28km
Updated: Tue, 03-Aug-2021 9:15am EDT
Partly cloudy
Partly cloudy
 Wind from NNE
Wind: NNE 5 mph , 7 km/h
Temperature: 72°F , 22°C
Dew Point: 68°F , 20°C
Humidity: 88%
Barometer: 30.06 inHg , 1017.9 hPa
Clouds: Partly cloudy
Visibility: 10 miles , 16 km
Cloud details: Partly cloudy 7000 ft
2021/08/03 13:15 KJNX 031315Z AUTO 02004KT 10SM SCT070 22/20 A3006 RMK AO2
 
KLHZ - Louisburg/Frankl, North Carolina, USA
Distance from station: NE 33mi, 54km
Updated: Tue, 03-Aug-2021 9:15am EDT
Clear
Clear
 Wind from NE
Wind: NE 3 mph , 6 km/h
Temperature: 70°F , 21°C
Dew Point: 64°F , 18°C
Humidity: 83%
Barometer: 30.11 inHg , 1019.6 hPa
Clouds: Clear
Visibility: 10 miles , 16 km
2021/08/03 13:15 KLHZ 031315Z AUTO 04003KT 10SM CLR 21/18 A3011 RMK AO2
KPOB - Pope Afb, North Carolina, USA
Distance from station: SSW 37mi, 59km
Updated: Tue, 03-Aug-2021 8:55am EDT
Light rain, Overcast
Light rain, Overcast
 Wind from varies
Wind: varies 2 mph , 4 km/h
Temperature: 72°F , 22°C
Dew Point: 66°F , 19°C
Humidity: 83%
Barometer: 30.03 inHg , 1016.9 hPa
Summary: Light rain
Clouds: Overcast
Visibility: 7 miles , 11 km
Cloud details: Few Clouds 1500 ft
Mostly cloudy 3500 ft
Mostly cloudy 4000 ft
Overcast 10000 ft
2021/08/03 12:55 KPOB 031255Z VRB02KT 7SM -RA FEW015 BKN035 BKN040 OVC100 22/19 A3003 RMK AO2A SLPNO WND DATA ESTMD ALSTG ESTMD P0000
 
KSCR - Siler City, North Carolina, USA
Distance from station: W 47mi, 75km
Updated: Tue, 03-Aug-2021 9:15am EDT
Light rain, Overcast
Light rain, Overcast
 Wind from NE
Wind: NE 6 mph , 9 km/h
Temperature: 66°F , 19°C
Dew Point: 64°F , 18°C
Humidity: 94%
Barometer: 30.07 inHg , 1018.3 hPa
Summary: Light rain
Clouds: Overcast
Visibility: 10 miles , 16 km
Cloud details: Partly cloudy 3900 ft
Mostly cloudy 4800 ft
Overcast 8500 ft
2021/08/03 13:15 KSCR 031315Z AUTO 04005KT 10SM -RA SCT039 BKN048 OVC085 19/18 A3007 RMK AO2 T01930180
KTDF - Roxboro Person, North Carolina, USA
Distance from station: NNW 49mi, 79km
Updated: Tue, 03-Aug-2021 9:15am EDT
Light rain, Overcast
Light rain, Overcast
 Wind from ENE
Wind: ENE 5 mph , 7 km/h
Temperature: 66°F , 19°C
Dew Point: 64°F , 18°C
Humidity: 94%
Barometer: 30.11 inHg , 1019.6 hPa
Summary: Light rain
Clouds: Overcast
Visibility: 10 miles , 16 km
Cloud details: Partly cloudy 4800 ft
Mostly cloudy 6000 ft
Overcast 9000 ft
2021/08/03 13:15 KTDF 031315Z AUTO 07004KT 10SM -RA SCT048 BKN060 OVC090 19/18 A3011 RMK AO2
 
KSOP - Southern Pines, North Carolina, USA
Distance from station: SW 50mi, 80km
Updated: Tue, 03-Aug-2021 8:56am EDT
Light rain, Overcast
Light rain, Overcast
 Wind from ENE
Wind: ENE 6 mph , 9 km/h
Temperature: 70°F , 21°C
Dew Point: 66°F , 19°C
Humidity: 88%
Barometer: 30.05 inHg , 1017.6 hPa
Summary: Light rain
Clouds: Overcast
Visibility: 9 miles , 14 km
Cloud details: Few Clouds 1400 ft
Mostly cloudy 3700 ft
Overcast 4600 ft
2021/08/03 12:56 KSOP 031256Z AUTO 06005KT 9SM -RA FEW014 BKN037 OVC046 21/19 A3005 RMK AO2 SLP179 P0007 T02060189
KHNZ - Henderson/Oxford, North Carolina, USA
Distance from station: N 52mi, 84km
Updated: Tue, 03-Aug-2021 9:15am EDT
Clear
Clear
 Wind from NE
Wind: NE 5 mph , 7 km/h
Temperature: 66°F , 19°C
Dew Point: 66°F , 19°C
Humidity: 100%
Barometer: 30.09 inHg , 1019 hPa
Clouds: Clear
Visibility: 10 miles , 16 km
2021/08/03 13:15 KHNZ 031315Z AUTO 05004KT 10SM CLR 19/19 A3009 RMK AO2 T01900189
 
KBUY - Burlington, North Carolina, USA
Distance from station: NW 54mi, 86km
Updated: Tue, 03-Aug-2021 8:54am EDT
Light rain, Overcast
Light rain, Overcast
 Wind from varies
Wind: varies 5 mph , 7 km/h
Temperature: 70°F , 21°C
Dew Point: 63°F , 17°C
Humidity: 78%
Barometer: 30.07 inHg , 1018.3 hPa
Summary: Light rain
Clouds: Overcast
Visibility: 6 miles , 10 km
Cloud details: Overcast 10000 ft
2021/08/03 12:54 KBUY 031254Z AUTO VRB04KT 6SM -RA OVC100 21/17 A3007 RMK AO2 SLP178 P0002 T02060172
KTNB - Boone Watauga Ct, North Carolina, USA
Distance from station: SE 2mi, 3km
Updated: Tue, 03-Aug-2021 9:15am EDT
Mist
Mist
 Wind from E
Wind: E 3 mph , 6 km/h
Temperature: 63°F , 17°C
Dew Point: 63°F , 17°C
Humidity: 100%
Barometer: 30.16 inHg , 1021.3 hPa
Summary: Mist
Visibility: 5 miles , 8 km
2021/08/03 13:15 KTNB 031315Z AUTO 10003KT 5SM BR 17/17 A3016 RMK AO2 T01690168
 
KGEV - Jefferson, North Carolina, USA
Distance from station: NE 21mi, 33km
Updated: Tue, 03-Aug-2021 9:15am EDT
Overcast
Overcast
 Wind from S
Wind: S 5 mph , 7 km/h
Temperature: 63°F , 17°C
Dew Point: 63°F , 17°C
Humidity: 100%
Barometer: 30.16 inHg , 1021.3 hPa
Clouds: Overcast
Visibility: 7 miles , 11 km
Cloud details: Overcast 1000 ft
2021/08/03 13:15 KGEV 031315Z AUTO 19004KT 7SM OVC010 17/17 A3016 RMK AO2 T01690166
KFQD - Rutherfordton, North Carolina, USA
Distance from station: SSW 57mi, 92km
Updated: Mon, 26-Jul-2021 3:15pm EDT
NOT Current
Heavy thunderstorm, Rain, Overcast
Heavy thunderstorm, Rain, Overcast
 Wind from NNE
Wind: NNE 17 mph , 28 km/h, Gust: 24 mph , 39 km/h
Temperature: 73°F , 23°C
Dew Point: 73°F , 23°C
Humidity: 100%
Barometer: 30.01 inHg , 1016.3 hPa
Summary: Heavy thunderstorm, Rain
Clouds: Overcast
Visibility: 1 3/4 miles , 2.8 km
Cloud details: Mostly cloudy 1300 ft
Mostly cloudy 2500 ft
Overcast 3200 ft
2021/07/26 19:15 KFQD 261915Z AUTO 03015G21KT 1 3/4SM +TSRA BKN013 BKN025 OVC032 23/23 A3001 RMK AO2 LTG DSNT NW THRU E P0007
 
KAVL - Asheville, North Carolina, USA
Distance from station: SW 72mi, 117km
Updated: Tue, 03-Aug-2021 9:03am EDT
Light rain, Mist, Overcast
Light rain, Mist, Overcast
 Wind from S
Wind: S 3 mph , 6 km/h
Temperature: 66°F , 19°C
Dew Point: 64°F , 18°C
Humidity: 94%
Barometer: 30.10 inHg , 1019.3 hPa
Summary: Light rain, Mist
Clouds: Overcast
Visibility: 4 miles , 6 km
Cloud details: Mostly cloudy 500 ft
Overcast 2800 ft
2021/08/03 13:03 KAVL 031303Z 17003KT 4SM -RA BR BKN005 OVC028 19/18 A3010 RMK AO2 P0000 T01890178